createdAt,value
2023-07-10T00:02:43.687Z,1.3
2023-07-10T00:08:37.816Z,1.4
2023-07-10T00:13:38.633Z,1.4
2023-07-10T00:18:39.375Z,1.9
2023-07-10T00:23:40.083Z,1.2
2023-07-10T00:28:40.942Z,1.3
2023-07-10T00:33:41.701Z,1.2
2023-07-10T00:38:42.449Z,1.3
2023-07-10T00:43:43.149Z,1.2
2023-07-10T00:48:44.071Z,1.2
2023-07-10T00:53:44.752Z,1.4
2023-07-10T00:58:45.561Z,1.2
2023-07-10T01:03:46.269Z,1.3
2023-07-10T01:08:46.942Z,1.6
2023-07-10T01:13:47.742Z,1.2
2023-07-10T01:18:48.535Z,1.2
2023-07-10T01:23:49.069Z,1.2
2023-07-10T01:28:49.844Z,1.5
2023-07-10T01:33:50.774Z,1.3
2023-07-10T01:38:53.833Z,1.1
2023-07-10T01:43:51.898Z,1.4
2023-07-10T01:48:52.842Z,1.7
2023-07-10T01:53:53.438Z,1.3
2023-07-10T01:58:54.239Z,1.2
2023-07-10T02:03:55.189Z,1.5
2023-07-10T02:08:55.684Z,1.3
2023-07-10T02:13:56.535Z,1.3
2023-07-10T02:18:57.227Z,1.3
2023-07-10T02:23:58.019Z,1.4
2023-07-10T02:28:58.805Z,1.2
2023-07-10T02:33:59.818Z,1.4
2023-07-10T02:39:00.416Z,1.3
2023-07-10T02:44:01.107Z,1.2
2023-07-10T02:49:02.076Z,1.7
2023-07-10T02:54:02.751Z,1.4
2023-07-10T02:59:03.531Z,1.6
2023-07-10T03:04:04.339Z,1.7
2023-07-10T03:09:04.992Z,1.3
2023-07-10T03:14:06.020Z,1.4
2023-07-10T03:19:06.793Z,1.5
2023-07-10T03:24:07.388Z,1.4
2023-07-10T03:29:08.081Z,1.4
2023-07-10T03:34:09.040Z,1.3
2023-07-10T03:39:09.671Z,1.4
2023-07-10T03:44:10.504Z,1.4
2023-07-10T03:49:11.150Z,1.4
2023-07-10T03:54:11.944Z,1.7
2023-07-10T03:59:12.978Z,1.7
2023-07-10T04:04:13.590Z,1.9
2023-07-10T04:09:14.191Z,1.4
2023-07-10T04:14:15.093Z,1.3
2023-07-10T04:19:15.942Z,1.8
2023-07-10T04:24:16.654Z,2.2
2023-07-10T04:29:17.431Z,1.4
2023-07-10T04:34:18.385Z,1.4
2023-07-10T04:39:19.021Z,1.6
2023-07-10T04:44:19.795Z,1.3
2023-07-10T04:49:20.610Z,1.3
2023-07-10T04:54:21.388Z,1.6
2023-07-10T04:59:22.098Z,1.5
2023-07-10T05:04:23.077Z,1.3
2023-07-10T05:09:23.730Z,1.4
2023-07-10T05:14:24.498Z,1.4
2023-07-10T05:19:25.271Z,1.4
2023-07-10T05:24:25.965Z,1.1
2023-07-10T05:29:26.851Z,1.5
2023-07-10T05:34:28.002Z,1.5
2023-07-10T05:39:28.417Z,1.2
2023-07-10T05:44:29.076Z,1.5
2023-07-10T05:49:29.869Z,1.2
2023-07-10T05:54:30.648Z,1.3
2023-07-10T05:59:31.475Z,1.5
2023-07-10T06:04:32.183Z,1.4
2023-07-10T06:09:34.438Z,1.2
2023-07-10T06:14:33.758Z,1.5
2023-07-10T06:19:34.708Z,1.6
2023-07-10T06:24:35.380Z,1.6
2023-07-10T06:29:36.082Z,1.6
2023-07-10T06:34:37.440Z,1.7
2023-07-10T06:39:37.699Z,1.3
2023-07-10T06:44:38.529Z,1.6
2023-07-10T06:49:39.437Z,1.4
2023-07-10T06:54:40.045Z,1.6
2023-07-10T06:59:40.922Z,1.6
2023-07-10T07:04:41.762Z,1.4
2023-07-10T07:09:42.454Z,2.0
2023-07-10T07:14:43.162Z,1.4
2023-07-10T07:19:44.072Z,1.6
2023-07-10T07:24:44.798Z,1.6
2023-07-10T07:29:45.630Z,1.5
2023-07-10T07:34:46.444Z,1.5
2023-07-10T07:39:47.174Z,1.7
2023-07-10T07:44:47.901Z,1.6
2023-07-10T07:49:48.849Z,2.0
2023-07-10T07:54:49.571Z,2.1
2023-07-10T07:59:50.340Z,1.5
2023-07-10T08:04:51.197Z,1.2
2023-07-10T08:09:51.905Z,1.5
2023-07-10T08:14:52.727Z,1.8
2023-07-10T08:19:53.585Z,1.7
2023-07-10T08:24:54.210Z,1.7
2023-07-10T08:29:55.070Z,1.4
2023-07-10T08:34:56.018Z,1.8
2023-07-10T08:39:56.693Z,1.3
2023-07-10T08:44:57.470Z,1.5
2023-07-10T08:49:58.299Z,1.5
2023-07-10T08:54:58.993Z,1.5
2023-07-10T08:59:59.881Z,1.7
2023-07-10T09:05:00.805Z,1.4
2023-07-10T09:10:01.562Z,1.6
2023-07-10T09:15:02.217Z,1.8
2023-07-10T09:20:03.177Z,1.4
2023-07-10T09:25:03.900Z,1.8
2023-07-10T09:30:04.742Z,1.7
2023-07-10T09:35:05.538Z,1.4
2023-07-10T09:40:06.341Z,1.6
2023-07-10T09:45:07.075Z,1.5
2023-07-10T09:50:08.000Z,1.5
2023-07-10T09:55:08.711Z,1.9
2023-07-10T10:00:09.526Z,2.1
2023-07-10T10:05:10.375Z,1.8
2023-07-10T10:10:11.026Z,1.5
2023-07-10T10:15:11.863Z,1.3
2023-07-10T10:20:12.779Z,1.5
2023-07-10T10:25:13.522Z,1.6
2023-07-10T10:30:14.366Z,1.4
2023-07-10T10:35:15.652Z,1.7
2023-07-10T10:40:15.895Z,1.3
2023-07-10T10:45:16.699Z,1.3
2023-07-10T10:50:17.652Z,1.3
2023-07-10T10:55:18.393Z,1.8
2023-07-10T11:00:19.122Z,1.2
2023-07-10T11:05:20.089Z,1.6
2023-07-10T11:10:20.785Z,1.5
2023-07-10T11:15:21.558Z,1.5
2023-07-10T11:20:22.524Z,1.5
2023-07-10T11:25:23.076Z,1.5
2023-07-10T11:30:23.941Z,2.1
2023-07-10T11:35:24.972Z,1.6
2023-07-10T11:40:25.603Z,1.6
2023-07-10T11:45:26.441Z,1.5
2023-07-10T11:50:27.141Z,1.3
2023-07-10T11:55:27.952Z,1.5
2023-07-10T12:00:28.762Z,1.4
2023-07-10T12:05:29.684Z,1.5
2023-07-10T12:10:30.456Z,1.5
2023-07-10T12:15:31.185Z,1.4
2023-07-10T12:20:32.091Z,1.5
2023-07-10T12:25:32.903Z,1.7
2023-07-10T12:30:33.763Z,1.1
2023-07-10T12:35:34.781Z,1.5
2023-07-10T12:40:35.382Z,1.3
2023-07-10T12:45:36.060Z,1.2
2023-07-10T12:50:37.029Z,1.1
2023-07-10T12:55:37.854Z,1.1
2023-07-10T13:00:38.623Z,1.3
2023-07-10T13:05:39.500Z,1.0
2023-07-10T13:10:40.197Z,1.3
2023-07-10T13:15:41.222Z,1.1
2023-07-10T13:20:41.964Z,1.1
2023-07-10T13:25:42.684Z,1.0
2023-07-10T13:30:43.611Z,1.2
2023-07-10T13:35:44.568Z,1.0
2023-07-10T13:40:45.087Z,1.1
2023-07-10T13:45:45.944Z,1.0
2023-07-10T13:50:46.698Z,0.9
2023-07-10T13:55:47.619Z,1.1
2023-07-10T14:00:48.464Z,1.0
2023-07-10T14:05:49.207Z,1.1
2023-07-10T14:10:50.011Z,0.9
2023-07-10T14:15:50.845Z,0.7
2023-07-10T14:20:52.720Z,0.5
2023-07-10T14:25:52.342Z,0.6
2023-07-10T14:30:53.163Z,0.5
2023-07-10T14:35:54.660Z,0.5
2023-07-10T14:40:54.943Z,0.7
2023-07-10T14:45:55.944Z,0.6
2023-07-10T14:50:56.716Z,0.6
2023-07-10T14:55:57.476Z,0.5
2023-07-10T15:00:58.207Z,0.7
2023-07-10T15:05:59.138Z,0.4
2023-07-10T15:11:00.023Z,0.6
2023-07-10T15:16:00.843Z,0.6
2023-07-10T15:21:03.591Z,0.5
2023-07-10T15:26:02.625Z,0.7
2023-07-10T15:31:03.605Z,0.8
2023-07-10T15:36:04.575Z,0.6
2023-07-10T15:41:05.418Z,0.7
2023-07-10T15:46:06.070Z,0.7
2023-07-10T15:51:07.202Z,0.8
2023-07-10T15:56:07.906Z,0.8
2023-07-10T16:01:09.112Z,0.7
2023-07-10T16:06:09.665Z,0.6
2023-07-10T16:11:10.481Z,0.6
2023-07-10T16:16:11.284Z,0.5
2023-07-10T16:21:12.187Z,0.6
2023-07-10T16:26:13.170Z,0.6
2023-07-10T16:31:14.059Z,0.4
2023-07-10T16:36:14.950Z,0.6
2023-07-10T16:41:15.662Z,0.6
2023-07-10T16:46:16.539Z,0.5
2023-07-10T16:51:17.487Z,0.6
2023-07-10T16:56:18.340Z,0.5
2023-07-10T17:01:19.230Z,0.4
2023-07-10T17:06:20.155Z,0.4
2023-07-10T17:11:21.011Z,0.5
2023-07-10T17:16:21.927Z,0.4
2023-07-10T17:21:22.903Z,0.5
2023-07-10T17:26:23.699Z,0.4
2023-07-10T17:31:24.613Z,0.6
2023-07-10T17:36:25.911Z,0.5
2023-07-10T17:41:26.381Z,0.7
2023-07-10T17:46:27.241Z,0.7
2023-07-10T17:51:28.108Z,0.9
2023-07-10T17:56:28.981Z,0.5
2023-07-10T18:01:29.942Z,0.9
2023-07-10T18:06:30.731Z,0.8
2023-07-10T18:11:31.614Z,0.6
2023-07-10T18:16:32.615Z,0.7
2023-07-10T18:21:33.440Z,1.0
2023-07-10T18:26:34.209Z,0.9
2023-07-10T18:31:35.157Z,0.8
2023-07-10T18:36:36.191Z,0.7
2023-07-10T18:41:36.870Z,0.8
2023-07-10T18:46:37.848Z,0.9
2023-07-10T18:51:38.725Z,0.7
2023-07-10T18:56:39.532Z,0.8
2023-07-10T19:01:40.561Z,0.7
2023-07-10T19:06:41.609Z,0.7
2023-07-10T19:11:42.094Z,0.5
2023-07-10T19:16:43.008Z,0.8
2023-07-10T19:21:43.970Z,0.7
2023-07-10T19:26:44.662Z,0.7
2023-07-10T19:31:45.578Z,0.8
2023-07-10T19:36:46.665Z,0.7
2023-07-10T19:41:47.120Z,0.7
2023-07-10T19:46:48.049Z,0.7
2023-07-10T19:51:48.900Z,0.6
2023-07-10T19:56:49.641Z,0.6
2023-07-10T20:01:50.495Z,0.8
2023-07-10T20:06:51.310Z,0.6
2023-07-10T20:11:52.057Z,0.9
2023-07-10T20:16:53.061Z,0.8
2023-07-10T20:21:53.862Z,0.7
2023-07-10T20:26:54.625Z,0.8
2023-07-10T20:31:55.450Z,0.7
2023-07-10T20:36:56.509Z,0.8
2023-07-10T20:41:56.996Z,0.7
2023-07-10T20:46:57.924Z,0.8
2023-07-10T20:51:58.769Z,0.8
2023-07-10T20:56:59.490Z,0.8
2023-07-10T21:02:00.259Z,1.0
2023-07-10T21:07:01.073Z,0.9
2023-07-10T21:12:01.893Z,0.9
2023-07-10T21:17:02.736Z,0.8
2023-07-10T21:22:03.634Z,0.9
2023-07-10T21:27:04.341Z,0.7
2023-07-10T21:32:05.235Z,0.6
2023-07-10T21:37:06.185Z,0.8
2023-07-10T21:42:06.693Z,0.9
2023-07-10T21:47:07.702Z,0.9
2023-07-10T21:52:08.473Z,0.8
2023-07-10T21:57:09.139Z,0.8
2023-07-10T22:02:10.139Z,0.9
2023-07-10T22:07:10.927Z,0.9
2023-07-10T22:12:11.631Z,1.0
2023-07-10T22:17:15.518Z,0.8
2023-07-10T22:22:13.088Z,0.9
2023-07-10T22:27:13.960Z,0.9
2023-07-10T22:32:14.817Z,0.8
2023-07-10T22:37:15.831Z,0.9
2023-07-10T22:42:16.449Z,0.8
2023-07-10T22:47:17.159Z,0.8
2023-07-10T22:52:17.961Z,1.0
2023-07-10T22:57:18.774Z,1.1
2023-07-10T23:02:19.618Z,0.9
2023-07-10T23:07:20.389Z,0.9
2023-07-10T23:12:21.036Z,1.0
2023-07-10T23:17:21.995Z,0.9
2023-07-10T23:22:22.790Z,1.0
2023-07-10T23:27:23.521Z,1.0
2023-07-10T23:32:26.589Z,0.9
2023-07-10T23:37:25.358Z,1.1
2023-07-10T23:42:26.462Z,1.0
2023-07-10T23:47:26.797Z,0.8
2023-07-10T23:52:27.604Z,0.9
2023-07-10T23:57:28.327Z,0.9
